MSC Floriana — H3HP — position and weather

sailwx.info

Track history (hours):
 
Tides and Currents Weather Stations Pressure Air Temp Water Temp Dewpoint Dewpoint Depression Visibility Wind Speed Wind Dir Waves Ship Positions

MSC Floriana

Last reported at 2017-Dec-08 20:17 UTC. Time now 2017-Dec-17 17:53 UTC.
Position N 37°36' E 016°15'.
Warning: this ship's position is 8 days out of date.

Length 188 m; draft 10 m.

Type: Ship (hazmat cat A). MMSI: 353878000.

Date/timePositionNaut miles runAvg speedWind from/ knotsBaromVisibWave heightAir tempDewpointWater temp
2017-Dec-08 20:17N 37°36' E 016°15'413.3
2017-Dec-08 19:59N 37°38' E 016°11'1213.1
2017-Dec-08 19:04N 37°44' E 015°58'513.0
2017-Dec-08 18:41N 37°47' E 015°52'413.0
2017-Dec-08 18:23N 37°48' E 015°48'1412.4
2017-Dec-08 17:15N 37°56' E 015°33'312.7
2017-Dec-08 17:00N 37°60' E 015°33'713.7
2017-Dec-08 16:30N 38°06' E 015°35'816.5
2017-Dec-08 16:00N 38°14' E 015°36'19 1.4
2017-Dec-08 03:00N 38°27' E 015°54'0 0.0
2017-Dec-07 21:36N 38°27' E 015°54'0 0.0
2017-Dec-07 03:22N 38°27' E 015°54'0 1.1
2017-Dec-07 02:59N 38°27' E 015°54'3 4.7
2017-Dec-07 02:26N 38°27' E 015°51'3 6.5
2017-Dec-07 01:56N 38°30' E 015°48'3 7.3
2017-Dec-07 01:29N 38°33' E 015°47'0 0.4
2017-Dec-07 01:00N 38°33' E 015°47'0 0.5
2017-Dec-07 00:29N 38°33' E 015°47'0 0.6
2017-Dec-06 23:59N 38°33' E 015°47'0 0.6
2017-Dec-06 23:27N 38°32' E 015°47'0 0.6
2017-Dec-06 23:00N 38°32' E 015°48'0 0.7
2017-Dec-06 22:30N 38°32' E 015°48'0 0.7
2017-Dec-06 22:00N 38°32' E 015°48'0 0.7
2017-Dec-06 21:30N 38°31' E 015°49'0 0.4
2017-Dec-06 21:00N 38°31' E 015°49'  
2017-Dec-03 18:47N 43°03' E 009°36'412.4
2017-Dec-03 18:30N 43°06' E 009°37'613.0
2017-Dec-03 18:00N 43°13' E 009°39'612.8
2017-Dec-03 17:30N 43°19' E 009°40'612.8
2017-Dec-03 17:00N 43°25' E 009°42'612.8
2017-Dec-03 16:30N 43°32' E 009°44'612.7
2017-Dec-03 16:00N 43°38' E 009°46'612.7
2017-Dec-03 15:30N 43°44' E 009°48'612.8
2017-Dec-03 15:00N 43°50' E 009°50'612.8
2017-Dec-03 14:30N 43°57' E 009°52'612.7
2017-Dec-03 14:00N 44°03' E 009°52'4 7.5
2017-Dec-03 13:30N 44°06' E 009°50'0 0.1
2017-Dec-03 13:00N 44°06' E 009°50'0 0.0
2017-Dec-03 12:30N 44°06' E 009°50'0 0.0
2017-Dec-03 12:00N 44°06' E 009°50'0 0.0
2017-Dec-03 11:30N 44°06' E 009°50'0 0.0
2017-Dec-03 11:00N 44°06' E 009°50'0 0.0
2017-Dec-03 10:30N 44°06' E 009°50'0 0.0
2017-Dec-03 10:00N 44°06' E 009°50'0 0.0
2017-Dec-03 09:30N 44°06' E 009°50'0 0.0
2017-Dec-03 09:00N 44°06' E 009°50'0 0.0
2017-Dec-03 08:30N 44°06' E 009°50'0 0.0
2017-Dec-03 08:00N 44°06' E 009°50'0 0.0
2017-Dec-03 07:30N 44°06' E 009°50'0 0.0
2017-Dec-03 07:00N 44°06' E 009°50'0 0.0
2017-Dec-03 06:30N 44°06' E 009°50'0 0.0
2017-Dec-03 06:00N 44°06' E 009°50'0 0.0
2017-Dec-03 05:30N 44°06' E 009°50'0 0.0
2017-Dec-03 04:57N 44°06' E 009°50'0 0.0
2017-Dec-03 04:27N 44°06' E 009°50'0 0.0
2017-Dec-03 03:57N 44°06' E 009°50'0 0.0
2017-Dec-03 03:27N 44°06' E 009°50'0 0.0
2017-Dec-03 03:00N 44°06' E 009°50'0 0.0
2017-Dec-03 02:30N 44°06' E 009°50'0 0.0
2017-Dec-03 02:00N 44°06' E 009°50'0 0.0
2017-Dec-03 01:30N 44°06' E 009°50'0 0.0
2017-Dec-03 01:00N 44°06' E 009°50'0 0.0
2017-Dec-03 00:30N 44°06' E 009°50'0 0.0
2017-Dec-03 00:00N 44°06' E 009°50'0 0.0
2017-Dec-02 23:30N 44°06' E 009°50'0 0.0
2017-Dec-02 23:00N 44°06' E 009°50'0 0.0
2017-Dec-02 22:30N 44°06' E 009°50'0 0.0
2017-Dec-02 22:00N 44°06' E 009°50'0 0.0
2017-Dec-02 21:30N 44°06' E 009°50'0 0.0
2017-Dec-02 21:00N 44°06' E 009°50'0 0.0
2017-Dec-02 20:30N 44°06' E 009°50'0 0.0
2017-Dec-02 20:00N 44°06' E 009°50'0 0.0
2017-Dec-02 19:30N 44°06' E 009°50'0 0.0
2017-Dec-02 19:00N 44°06' E 009°50'0 0.0
2017-Dec-02 18:30N 44°06' E 009°50'0 0.0
2017-Dec-02 18:00N 44°06' E 009°50'0 0.0
2017-Dec-02 17:30N 44°06' E 009°50'0 0.0
2017-Dec-02 17:00N 44°06' E 009°50'0 0.0
2017-Dec-02 16:30N 44°06' E 009°50'0 0.0
2017-Dec-02 16:00N 44°06' E 009°50'0 0.0
2017-Dec-02 15:30N 44°06' E 009°50'0 0.0
2017-Dec-02 15:00N 44°06' E 009°50'0 0.0
2017-Dec-02 14:30N 44°06' E 009°50'0 0.0
2017-Dec-02 14:00N 44°06' E 009°50'0 0.0
2017-Dec-02 13:24N 44°06' E 009°50'0 0.0
2017-Dec-02 13:00N 44°06' E 009°50'0 0.0
2017-Dec-02 12:30N 44°06' E 009°50'0 0.0
2017-Dec-02 12:00N 44°06' E 009°50'2 4.0
2017-Dec-02 11:30N 44°04' E 009°51'3 6.7
2017-Dec-02 11:00N 44°02' E 009°54'2 4.4
2017-Dec-02 10:30N 43°60' E 009°53'611.8
2017-Dec-02 10:00N 44°00' E 009°44'611.8
2017-Dec-02 09:30N 44°02' E 009°37'612.1
2017-Dec-02 09:00N 44°05' E 009°29'612.7
2017-Dec-02 08:30N 44°08' E 009°21'612.6
2017-Dec-02 08:00N 44°10' E 009°13'612.7
2017-Dec-02 07:30N 44°13' E 009°05'612.8
2017-Dec-02 07:00N 44°16' E 008°57'713.0
2017-Dec-02 06:30N 44°19' E 008°49'611.9
2017-Dec-02 06:00N 44°22' E 008°42'5 9.1
2017-Dec-02 05:30N 44°25' E 008°47'0 0.8
2017-Dec-02 04:59N 44°25' E 008°48'0 0.0
2017-Dec-02 04:29N 44°25' E 008°48'0 0.0
2017-Dec-02 03:59N 44°25' E 008°48'0 0.0
2017-Dec-02 03:29N 44°25' E 008°48'0 0.0
2017-Dec-02 02:59N 44°25' E 008°48'0 0.0
2017-Dec-02 02:29N 44°25' E 008°48'0 0.0
2017-Dec-02 01:59N 44°25' E 008°48'0 0.0
2017-Dec-02 01:29N 44°25' E 008°48'0 0.0
2017-Dec-02 00:59N 44°25' E 008°48'0 0.0
2017-Dec-02 00:29N 44°25' E 008°48'0 0.0
2017-Dec-01 23:59N 44°25' E 008°48'0 0.0
2017-Dec-01 23:29N 44°25' E 008°48'0 0.0
2017-Dec-01 22:59N 44°25' E 008°48'0 0.0
2017-Dec-01 22:29N 44°25' E 008°48'0 0.0
2017-Dec-01 21:59N 44°25' E 008°48'0 0.0
2017-Dec-01 21:29N 44°25' E 008°48'0 0.0
2017-Dec-01 20:59N 44°25' E 008°48'0 0.0
2017-Dec-01 20:29N 44°25' E 008°48'0 0.0
2017-Dec-01 19:59N 44°25' E 008°48'0 0.0
2017-Dec-01 19:29N 44°25' E 008°48'0 0.0
2017-Dec-01 18:59N 44°25' E 008°48'0 0.0
2017-Dec-01 18:29N 44°25' E 008°48'0 0.0
2017-Dec-01 17:59N 44°25' E 008°48'0 0.0
2017-Dec-01 17:29N 44°25' E 008°48'0 0.0
2017-Dec-01 16:59N 44°25' E 008°48'0 0.0
2017-Dec-01 16:29N 44°25' E 008°48'0 0.0
2017-Dec-01 15:56N 44°25' E 008°48'0 0.0
2017-Dec-01 15:29N 44°25' E 008°48'0 0.0
2017-Dec-01 14:59N 44°25' E 008°48'0 0.0
2017-Dec-01 14:26N 44°25' E 008°48'0 0.0
2017-Dec-01 13:59N 44°25' E 008°48'0 0.0
2017-Dec-01 13:26N 44°25' E 008°48'0 0.0
2017-Dec-01 12:59N 44°25' E 008°48'0 0.0
2017-Dec-01 12:26N 44°25' E 008°48'0 0.0
2017-Dec-01 11:56N 44°25' E 008°48'0 0.0
2017-Dec-01 11:29N 44°25' E 008°48'0 0.0
2017-Dec-01 10:59N 44°25' E 008°48'0 0.0
2017-Dec-01 10:29N 44°25' E 008°48'0 0.0
2017-Dec-01 10:00N 44°25' E 008°48'0 0.0
2017-Dec-01 09:30N 44°25' E 008°48'0 0.0
2017-Dec-01 09:00N 44°25' E 008°48'0 0.0
2017-Dec-01 08:30N 44°25' E 008°48'1 1.1
2017-Dec-01 08:00N 44°25' E 008°47'2 3.5
2017-Dec-01 07:30N 44°24' E 008°45'1 1.6
2017-Dec-01 07:00N 44°24' E 008°46'0 0.3
2017-Dec-01 06:30N 44°23' E 008°46'0 0.0
2017-Dec-01 05:57N 44°23' E 008°46'0 0.0
2017-Dec-01 05:30N 44°23' E 008°46'0 0.1
2017-Dec-01 05:00N 44°23' E 008°46'0 0.2
2017-Dec-01 04:30N 44°24' E 008°46'0 0.1
2017-Dec-01 04:00N 44°24' E 008°45'0 0.4
2017-Dec-01 03:27N 44°23' E 008°46'0 0.0
2017-Dec-01 03:00N 44°23' E 008°46'0 0.0
2017-Dec-01 02:30N 44°23' E 008°46'0 0.1
2017-Dec-01 02:00N 44°23' E 008°46'0 0.0
2017-Dec-01 01:30N 44°23' E 008°46'0 0.1
2017-Dec-01 01:00N 44°23' E 008°46'0 0.0
2017-Dec-01 00:30N 44°23' E 008°46'0 0.1
2017-Dec-01 00:00N 44°24' E 008°46'0 0.0
2017-Nov-30 23:30N 44°24' E 008°46'0 0.2
2017-Nov-30 23:00N 44°24' E 008°45'0 0.1
2017-Nov-30 22:30N 44°24' E 008°46'0 0.3
2017-Nov-30 22:00N 44°23' E 008°46'0 0.2
2017-Nov-30 21:30N 44°23' E 008°46'0 0.1
2017-Nov-30 21:00N 44°23' E 008°46'0 0.1
2017-Nov-30 20:30N 44°23' E 008°46'0 0.1
2017-Nov-30 20:00N 44°24' E 008°46'0 0.1
2017-Nov-30 19:30N 44°24' E 008°46'0 0.0
2017-Nov-30 19:00N 44°24' E 008°46'0 0.0
2017-Nov-30 18:30N 44°24' E 008°46'0 0.0
2017-Nov-30 17:57N 44°24' E 008°46'0 0.0
2017-Nov-30 17:30N 44°24' E 008°46'0 0.1
2017-Nov-30 17:00N 44°23' E 008°46'0 0.0
2017-Nov-30 16:30N 44°23' E 008°46'0 0.0
2017-Nov-30 15:57N 44°23' E 008°46'0 0.0
2017-Nov-30 15:30N 44°23' E 008°46'0 0.0
2017-Nov-30 15:00N 44°23' E 008°46'0 0.1
2017-Nov-30 14:30N 44°23' E 008°46'0 0.0
2017-Nov-30 14:00N 44°23' E 008°46'0 0.0
2017-Nov-30 13:30N 44°23' E 008°46'0 0.0
2017-Nov-30 13:00N 44°23' E 008°46'0 0.0
2017-Nov-30 12:30N 44°23' E 008°46'0 0.3
2017-Nov-30 12:00N 44°24' E 008°46'2 3.3
2017-Nov-30 11:31N 44°23' E 008°44'4 7.9
2017-Nov-30 11:00N 44°19' E 008°44'611.8
2017-Nov-30 10:30N 44°14' E 008°48'612.4
2017-Nov-30 10:00N 44°08' E 008°52'612.7
2017-Nov-30 09:30N 44°02' E 008°56'712.9
2017-Nov-30 09:00N 43°56' E 008°59'912.9
2017-Nov-30 08:18N 43°48' E 009°04'413.0
2017-Nov-30 08:00N 43°45' E 009°07'612.7
2017-Nov-30 07:30N 43°39' E 009°11'612.2
2017-Nov-30 07:00N 43°34' E 009°15'612.0
2017-Nov-30 06:30N 43°29' E 009°19'611.8
2017-Nov-30 06:00N 43°23' E 009°23'611.8
2017-Nov-30 05:30N 43°18' E 009°27'611.5
2017-Nov-30 05:00N 43°13' E 009°31'611.4
2017-Nov-30 04:30N 43°08' E 009°35'611.3
2017-Nov-30 04:00N 43°03' E 009°38'2312.0
2017-Nov-30 02:07N 42°42' E 009°48'112.1
2017-Nov-30 02:00N 42°40' E 009°48'3912.0
2017-Nov-29 22:42N 42°07' E 010°16'312.7
2017-Nov-29 22:29N 42°05' E 010°19'  
Track history (hours):
 
Tides and Currents Weather Stations Pressure Air Temp Water Temp Dewpoint Dewpoint Depression Visibility Wind Speed Wind Dir Waves Ship Positions

MSC Floriana

Last reported at 2017-Dec-08 20:17 UTC. Time now 2017-Dec-17 17:53 UTC.
Position N 37°36' E 016°15'.
Warning: this ship's position is 8 days out of date.

Length 188 m; draft 10 m.

Type: Ship (hazmat cat A). MMSI: 353878000.

Date/timePositionNaut miles runAvg speedWind from/ knotsBaromVisibWave heightAir tempDewpointWater temp
2017-Dec-08 20:17N 37°36' E 016°15'413.3
2017-Dec-08 19:59N 37°38' E 016°11'1213.1
2017-Dec-08 19:04N 37°44' E 015°58'513.0
2017-Dec-08 18:41N 37°47' E 015°52'413.0
2017-Dec-08 18:23N 37°48' E 015°48'1412.4
2017-Dec-08 17:15N 37°56' E 015°33'312.7
2017-Dec-08 17:00N 37°60' E 015°33'713.7
2017-Dec-08 16:30N 38°06' E 015°35'816.5
2017-Dec-08 16:00N 38°14' E 015°36'19 1.4
2017-Dec-08 03:00N 38°27' E 015°54'0 0.0
2017-Dec-07 21:36N 38°27' E 015°54'0 0.0
2017-Dec-07 03:22N 38°27' E 015°54'0 1.1
2017-Dec-07 02:59N 38°27' E 015°54'3 4.7
2017-Dec-07 02:26N 38°27' E 015°51'3 6.5
2017-Dec-07 01:56N 38°30' E 015°48'3 7.3
2017-Dec-07 01:29N 38°33' E 015°47'0 0.4
2017-Dec-07 01:00N 38°33' E 015°47'0 0.5
2017-Dec-07 00:29N 38°33' E 015°47'0 0.6
2017-Dec-06 23:59N 38°33' E 015°47'0 0.6
2017-Dec-06 23:27N 38°32' E 015°47'0 0.6
2017-Dec-06 23:00N 38°32' E 015°48'0 0.7
2017-Dec-06 22:30N 38°32' E 015°48'0 0.7
2017-Dec-06 22:00N 38°32' E 015°48'0 0.7
2017-Dec-06 21:30N 38°31' E 015°49'0 0.4
2017-Dec-06 21:00N 38°31' E 015°49'  
2017-Dec-03 18:47N 43°03' E 009°36'412.4
2017-Dec-03 18:30N 43°06' E 009°37'613.0
2017-Dec-03 18:00N 43°13' E 009°39'612.8
2017-Dec-03 17:30N 43°19' E 009°40'612.8
2017-Dec-03 17:00N 43°25' E 009°42'612.8
2017-Dec-03 16:30N 43°32' E 009°44'612.7
2017-Dec-03 16:00N 43°38' E 009°46'612.7
2017-Dec-03 15:30N 43°44' E 009°48'612.8
2017-Dec-03 15:00N 43°50' E 009°50'612.8
2017-Dec-03 14:30N 43°57' E 009°52'612.7
2017-Dec-03 14:00N 44°03' E 009°52'4 7.5
2017-Dec-03 13:30N 44°06' E 009°50'0 0.1
2017-Dec-03 13:00N 44°06' E 009°50'0 0.0
2017-Dec-03 12:30N 44°06' E 009°50'0 0.0
2017-Dec-03 12:00N 44°06' E 009°50'0 0.0
2017-Dec-03 11:30N 44°06' E 009°50'0 0.0
2017-Dec-03 11:00N 44°06' E 009°50'0 0.0
2017-Dec-03 10:30N 44°06' E 009°50'0 0.0
2017-Dec-03 10:00N 44°06' E 009°50'0 0.0
2017-Dec-03 09:30N 44°06' E 009°50'0 0.0
2017-Dec-03 09:00N 44°06' E 009°50'0 0.0
2017-Dec-03 08:30N 44°06' E 009°50'0 0.0
2017-Dec-03 08:00N 44°06' E 009°50'0 0.0
2017-Dec-03 07:30N 44°06' E 009°50'0 0.0
2017-Dec-03 07:00N 44°06' E 009°50'0 0.0
2017-Dec-03 06:30N 44°06' E 009°50'0 0.0
2017-Dec-03 06:00N 44°06' E 009°50'0 0.0
2017-Dec-03 05:30N 44°06' E 009°50'0 0.0
2017-Dec-03 04:57N 44°06' E 009°50'0 0.0
2017-Dec-03 04:27N 44°06' E 009°50'0 0.0
2017-Dec-03 03:57N 44°06' E 009°50'0 0.0
2017-Dec-03 03:27N 44°06' E 009°50'0 0.0
2017-Dec-03 03:00N 44°06' E 009°50'0 0.0
2017-Dec-03 02:30N 44°06' E 009°50'0 0.0
2017-Dec-03 02:00N 44°06' E 009°50'0 0.0
2017-Dec-03 01:30N 44°06' E 009°50'0 0.0
2017-Dec-03 01:00N 44°06' E 009°50'0 0.0
2017-Dec-03 00:30N 44°06' E 009°50'0 0.0
2017-Dec-03 00:00N 44°06' E 009°50'0 0.0
2017-Dec-02 23:30N 44°06' E 009°50'0 0.0
2017-Dec-02 23:00N 44°06' E 009°50'0 0.0
2017-Dec-02 22:30N 44°06' E 009°50'0 0.0
2017-Dec-02 22:00N 44°06' E 009°50'0 0.0
2017-Dec-02 21:30N 44°06' E 009°50'0 0.0
2017-Dec-02 21:00N 44°06' E 009°50'0 0.0
2017-Dec-02 20:30N 44°06' E 009°50'0 0.0
2017-Dec-02 20:00N 44°06' E 009°50'0 0.0
2017-Dec-02 19:30N 44°06' E 009°50'0 0.0
2017-Dec-02 19:00N 44°06' E 009°50'0 0.0
2017-Dec-02 18:30N 44°06' E 009°50'0 0.0
2017-Dec-02 18:00N 44°06' E 009°50'0 0.0
2017-Dec-02 17:30N 44°06' E 009°50'0 0.0
2017-Dec-02 17:00N 44°06' E 009°50'0 0.0
2017-Dec-02 16:30N 44°06' E 009°50'0 0.0
2017-Dec-02 16:00N 44°06' E 009°50'0 0.0
2017-Dec-02 15:30N 44°06' E 009°50'0 0.0
2017-Dec-02 15:00N 44°06' E 009°50'0 0.0
2017-Dec-02 14:30N 44°06' E 009°50'0 0.0
2017-Dec-02 14:00N 44°06' E 009°50'0 0.0
2017-Dec-02 13:24N 44°06' E 009°50'0 0.0
2017-Dec-02 13:00N 44°06' E 009°50'0 0.0
2017-Dec-02 12:30N 44°06' E 009°50'0 0.0
2017-Dec-02 12:00N 44°06' E 009°50'2 4.0
2017-Dec-02 11:30N 44°04' E 009°51'3 6.7
2017-Dec-02 11:00N 44°02' E 009°54'2 4.4
2017-Dec-02 10:30N 43°60' E 009°53'611.8
2017-Dec-02 10:00N 44°00' E 009°44'611.8
2017-Dec-02 09:30N 44°02' E 009°37'612.1
2017-Dec-02 09:00N 44°05' E 009°29'612.7
2017-Dec-02 08:30N 44°08' E 009°21'612.6
2017-Dec-02 08:00N 44°10' E 009°13'612.7
2017-Dec-02 07:30N 44°13' E 009°05'612.8
2017-Dec-02 07:00N 44°16' E 008°57'713.0
2017-Dec-02 06:30N 44°19' E 008°49'611.9
2017-Dec-02 06:00N 44°22' E 008°42'5 9.1
2017-Dec-02 05:30N 44°25' E 008°47'0 0.8
2017-Dec-02 04:59N 44°25' E 008°48'0 0.0
2017-Dec-02 04:29N 44°25' E 008°48'0 0.0
2017-Dec-02 03:59N 44°25' E 008°48'0 0.0
2017-Dec-02 03:29N 44°25' E 008°48'0 0.0
2017-Dec-02 02:59N 44°25' E 008°48'0 0.0
2017-Dec-02 02:29N 44°25' E 008°48'0 0.0
2017-Dec-02 01:59N 44°25' E 008°48'0 0.0
2017-Dec-02 01:29N 44°25' E 008°48'0 0.0
2017-Dec-02 00:59N 44°25' E 008°48'0 0.0
2017-Dec-02 00:29N 44°25' E 008°48'0 0.0
2017-Dec-01 23:59N 44°25' E 008°48'0 0.0
2017-Dec-01 23:29N 44°25' E 008°48'0 0.0
2017-Dec-01 22:59N 44°25' E 008°48'0 0.0
2017-Dec-01 22:29N 44°25' E 008°48'0 0.0
2017-Dec-01 21:59N 44°25' E 008°48'0 0.0
2017-Dec-01 21:29N 44°25' E 008°48'0 0.0
2017-Dec-01 20:59N 44°25' E 008°48'0 0.0
2017-Dec-01 20:29N 44°25' E 008°48'0 0.0
2017-Dec-01 19:59N 44°25' E 008°48'0 0.0
2017-Dec-01 19:29N 44°25' E 008°48'0 0.0
2017-Dec-01 18:59N 44°25' E 008°48'0 0.0
2017-Dec-01 18:29N 44°25' E 008°48'0 0.0
2017-Dec-01 17:59N 44°25' E 008°48'0 0.0
2017-Dec-01 17:29N 44°25' E 008°48'0 0.0
2017-Dec-01 16:59N 44°25' E 008°48'0 0.0
2017-Dec-01 16:29N 44°25' E 008°48'0 0.0
2017-Dec-01 15:56N 44°25' E 008°48'0 0.0
2017-Dec-01 15:29N 44°25' E 008°48'0 0.0
2017-Dec-01 14:59N 44°25' E 008°48'0 0.0
2017-Dec-01 14:26N 44°25' E 008°48'0 0.0
2017-Dec-01 13:59N 44°25' E 008°48'0 0.0
2017-Dec-01 13:26N 44°25' E 008°48'0 0.0
2017-Dec-01 12:59N 44°25' E 008°48'0 0.0
2017-Dec-01 12:26N 44°25' E 008°48'0 0.0
2017-Dec-01 11:56N 44°25' E 008°48'0 0.0
2017-Dec-01 11:29N 44°25' E 008°48'0 0.0
2017-Dec-01 10:59N 44°25' E 008°48'0 0.0
2017-Dec-01 10:29N 44°25' E 008°48'0 0.0
2017-Dec-01 10:00N 44°25' E 008°48'0 0.0
2017-Dec-01 09:30N 44°25' E 008°48'0 0.0
2017-Dec-01 09:00N 44°25' E 008°48'0 0.0
2017-Dec-01 08:30N 44°25' E 008°48'1 1.1
2017-Dec-01 08:00N 44°25' E 008°47'2 3.5
2017-Dec-01 07:30N 44°24' E 008°45'1 1.6
2017-Dec-01 07:00N 44°24' E 008°46'0 0.3
2017-Dec-01 06:30N 44°23' E 008°46'0 0.0
2017-Dec-01 05:57N 44°23' E 008°46'0 0.0
2017-Dec-01 05:30N 44°23' E 008°46'0 0.1
2017-Dec-01 05:00N 44°23' E 008°46'0 0.2
2017-Dec-01 04:30N 44°24' E 008°46'0 0.1
2017-Dec-01 04:00N 44°24' E 008°45'0 0.4
2017-Dec-01 03:27N 44°23' E 008°46'0 0.0
2017-Dec-01 03:00N 44°23' E 008°46'0 0.0
2017-Dec-01 02:30N 44°23' E 008°46'0 0.1
2017-Dec-01 02:00N 44°23' E 008°46'0 0.0
2017-Dec-01 01:30N 44°23' E 008°46'0 0.1
2017-Dec-01 01:00N 44°23' E 008°46'0 0.0
2017-Dec-01 00:30N 44°23' E 008°46'0 0.1
2017-Dec-01 00:00N 44°24' E 008°46'0 0.0
2017-Nov-30 23:30N 44°24' E 008°46'0 0.2
2017-Nov-30 23:00N 44°24' E 008°45'0 0.1
2017-Nov-30 22:30N 44°24' E 008°46'0 0.3
2017-Nov-30 22:00N 44°23' E 008°46'0 0.2
2017-Nov-30 21:30N 44°23' E 008°46'0 0.1
2017-Nov-30 21:00N 44°23' E 008°46'0 0.1
2017-Nov-30 20:30N 44°23' E 008°46'0 0.1
2017-Nov-30 20:00N 44°24' E 008°46'0 0.1
2017-Nov-30 19:30N 44°24' E 008°46'0 0.0
2017-Nov-30 19:00N 44°24' E 008°46'0 0.0
2017-Nov-30 18:30N 44°24' E 008°46'0 0.0
2017-Nov-30 17:57N 44°24' E 008°46'0 0.0
2017-Nov-30 17:30N 44°24' E 008°46'0 0.1
2017-Nov-30 17:00N 44°23' E 008°46'0 0.0
2017-Nov-30 16:30N 44°23' E 008°46'0 0.0
2017-Nov-30 15:57N 44°23' E 008°46'0 0.0
2017-Nov-30 15:30N 44°23' E 008°46'0 0.0
2017-Nov-30 15:00N 44°23' E 008°46'0 0.1
2017-Nov-30 14:30N 44°23' E 008°46'0 0.0
2017-Nov-30 14:00N 44°23' E 008°46'0 0.0
2017-Nov-30 13:30N 44°23' E 008°46'0 0.0
2017-Nov-30 13:00N 44°23' E 008°46'0 0.0
2017-Nov-30 12:30N 44°23' E 008°46'0 0.3
2017-Nov-30 12:00N 44°24' E 008°46'2 3.3
2017-Nov-30 11:31N 44°23' E 008°44'4 7.9
2017-Nov-30 11:00N 44°19' E 008°44'611.8
2017-Nov-30 10:30N 44°14' E 008°48'612.4
2017-Nov-30 10:00N 44°08' E 008°52'612.7
2017-Nov-30 09:30N 44°02' E 008°56'712.9
2017-Nov-30 09:00N 43°56' E 008°59'912.9
2017-Nov-30 08:18N 43°48' E 009°04'413.0
2017-Nov-30 08:00N 43°45' E 009°07'612.7
2017-Nov-30 07:30N 43°39' E 009°11'612.2
2017-Nov-30 07:00N 43°34' E 009°15'612.0
2017-Nov-30 06:30N 43°29' E 009°19'611.8
2017-Nov-30 06:00N 43°23' E 009°23'611.8
2017-Nov-30 05:30N 43°18' E 009°27'611.5
2017-Nov-30 05:00N 43°13' E 009°31'611.4
2017-Nov-30 04:30N 43°08' E 009°35'611.3
2017-Nov-30 04:00N 43°03' E 009°38'2312.0
2017-Nov-30 02:07N 42°42' E 009°48'112.1
2017-Nov-30 02:00N 42°40' E 009°48'3912.0
2017-Nov-29 22:42N 42°07' E 010°16'312.7
2017-Nov-29 22:29N 42°05' E 010°19'  

Dump ship's entire track history